sensor_id;sensor_type;location;lat;lon;timestamp;pressure;altitude;pressure_sealevel;temperature;humidity
60589;BME280;46421;48.610;9.334;2023-03-22T00:02:20;97857.31;;;9.55;82.77
60589;BME280;46421;48.610;9.334;2023-03-22T00:04:45;97848.63;;;9.38;84.04
60589;BME280;46421;48.610;9.334;2023-03-22T00:07:10;97851.34;;;9.21;84.42
60589;BME280;46421;48.610;9.334;2023-03-22T00:09:36;97852.59;;;9.33;85.05
60589;BME280;46421;48.610;9.334;2023-03-22T00:12:02;97868.63;;;9.48;84.65
60589;BME280;46421;48.610;9.334;2023-03-22T00:14:27;97856.31;;;9.24;87.49
60589;BME280;46421;48.610;9.334;2023-03-22T00:16:52;97854.09;;;8.96;87.75
60589;BME280;46421;48.610;9.334;2023-03-22T00:19:18;97857.47;;;9.22;87.75
60589;BME280;46421;48.610;9.334;2023-03-22T00:21:43;97858.59;;;9.27;86.23
60589;BME280;46421;48.610;9.334;2023-03-22T00:24:10;97861.69;;;9.08;87.35
60589;BME280;46421;48.610;9.334;2023-03-22T00:26:35;97857.41;;;8.98;87.25
60589;BME280;46421;48.610;9.334;2023-03-22T00:29:01;97857.38;;;9.07;86.68
60589;BME280;46421;48.610;9.334;2023-03-22T00:31:26;97862.09;;;8.72;88.48
60589;BME280;46421;48.610;9.334;2023-03-22T00:33:51;97855.50;;;8.10;91.96
60589;BME280;46421;48.610;9.334;2023-03-22T00:36:17;97855.03;;;8.47;91.13
60589;BME280;46421;48.610;9.334;2023-03-22T00:38:42;97843.56;;;8.63;88.66
60589;BME280;46421;48.610;9.334;2023-03-22T00:41:10;97849.72;;;8.31;90.72
60589;BME280;46421;48.610;9.334;2023-03-22T00:43:36;97843.25;;;8.33;90.45
60589;BME280;46421;48.610;9.334;2023-03-22T00:46:02;97834.97;;;8.36;89.96
60589;BME280;46421;48.610;9.334;2023-03-22T00:48:27;97838.94;;;8.41;89.31
60589;BME280;46421;48.610;9.334;2023-03-22T00:50:53;97832.66;;;8.58;88.10
60589;BME280;46421;48.610;9.334;2023-03-22T00:53:18;97834.97;;;8.45;88.66
60589;BME280;46421;48.610;9.334;2023-03-22T00:55:43;97822.41;;;8.14;90.89
60589;BME280;46421;48.610;9.334;2023-03-22T00:58:09;97822.75;;;8.11;90.86
60589;BME280;46421;48.610;9.334;2023-03-22T01:00:34;97824.72;;;8.25;91.05
60589;BME280;46421;48.610;9.334;2023-03-22T01:03:00;97825.00;;;8.63;89.14
60589;BME280;46421;48.610;9.334;2023-03-22T01:05:30;97829.00;;;8.34;89.87
60589;BME280;46421;48.610;9.334;2023-03-22T01:07:59;97826.38;;;7.77;92.30
60589;BME280;46421;48.610;9.334;2023-03-22T01:10:26;97814.38;;;7.31;95.05
60589;BME280;46421;48.610;9.334;2023-03-22T01:12:52;97813.34;;;7.24;95.95
60589;BME280;46421;48.610;9.334;2023-03-22T01:15:18;97811.16;;;7.79;93.22
60589;BME280;46421;48.610;9.334;2023-03-22T01:17:43;97816.78;;;7.67;94.24
60589;BME280;46421;48.610;9.334;2023-03-22T01:20:09;97810.53;;;7.93;92.44
60589;BME280;46421;48.610;9.334;2023-03-22T01:22:35;97809.34;;;7.96;92.21
60589;BME280;46421;48.610;9.334;2023-03-22T01:25:01;97807.47;;;7.38;94.70
60589;BME280;46421;48.610;9.334;2023-03-22T01:27:26;97808.38;;;7.12;96.18
60589;BME280;46421;48.610;9.334;2023-03-22T01:29:52;97799.94;;;7.09;95.23
60589;BME280;46421;48.610;9.334;2023-03-22T01:32:17;97801.09;;;7.06;95.52
60589;BME280;46421;48.610;9.334;2023-03-22T01:34:42;97803.75;;;7.06;96.33
60589;BME280;46421;48.610;9.334;2023-03-22T01:37:08;97803.25;;;7.19;94.76
60589;BME280;46421;48.610;9.334;2023-03-22T01:39:33;97806.03;;;7.09;97.15
60589;BME280;46421;48.610;9.334;2023-03-22T01:42:01;97800.09;;;6.99;95.90
60589;BME280;46421;48.610;9.334;2023-03-22T01:44:30;97793.88;;;6.82;96.05
60589;BME280;46421;48.610;9.334;2023-03-22T01:46:55;97791.19;;;6.74;97.20
60589;BME280;46421;48.610;9.334;2023-03-22T01:49:27;97791.22;;;7.25;92.85
60589;BME280;46421;48.610;9.334;2023-03-22T01:51:58;97782.44;;;7.16;93.27
60589;BME280;46421;48.610;9.334;2023-03-22T01:54:42;97775.56;;;7.40;92.91
60589;BME280;46421;48.610;9.334;2023-03-22T01:57:10;97780.66;;;7.25;92.98
60589;BME280;46421;48.610;9.334;2023-03-22T01:59:36;97777.84;;;7.26;91.34
60589;BME280;46421;48.610;9.334;2023-03-22T02:02:03;97768.91;;;6.68;95.14
60589;BME280;46421;48.610;9.334;2023-03-22T02:04:33;97785.31;;;6.54;96.61
60589;BME280;46421;48.610;9.334;2023-03-22T02:07:08;97778.25;;;6.54;95.97
60589;BME280;46421;48.610;9.334;2023-03-22T02:09:39;97770.53;;;6.08;99.23
60589;BME280;46421;48.610;9.334;2023-03-22T02:12:33;97769.88;;;6.06;100.00
60589;BME280;46421;48.610;9.334;2023-03-22T02:15:23;97766.25;;;6.33;98.97
60589;BME280;46421;48.610;9.334;2023-03-22T02:18:14;97770.91;;;6.74;95.77
60589;BME280;46421;48.610;9.334;2023-03-22T02:20:56;97770.94;;;6.83;95.10
60589;BME280;46421;48.610;9.334;2023-03-22T02:29:23;97763.56;;;6.94;91.87
60589;BME280;46421;48.610;9.334;2023-03-22T02:45:26;97763.63;;;6.33;97.83
60589;BME280;46421;48.610;9.334;2023-03-22T02:48:02;97760.50;;;5.94;98.75
60589;BME280;46421;48.610;9.334;2023-03-22T02:53:07;97763.00;;;6.13;98.54
60589;BME280;46421;48.610;9.334;2023-03-22T02:55:54;97756.31;;;5.83;98.33
60589;BME280;46421;48.610;9.334;2023-03-22T02:58:26;97760.75;;;5.64;100.00
60589;BME280;46421;48.610;9.334;2023-03-22T03:01:00;97754.38;;;5.67;100.00
60589;BME280;46421;48.610;9.334;2023-03-22T03:03:28;97758.53;;;5.69;99.63
60589;BME280;46421;48.610;9.334;2023-03-22T03:06:03;97756.94;;;5.77;99.56
60589;BME280;46421;48.610;9.334;2023-03-22T03:08:34;97754.75;;;5.72;99.36
60589;BME280;46421;48.610;9.334;2023-03-22T03:11:00;97764.31;;;5.37;100.00
60589;BME280;46421;48.610;9.334;2023-03-22T03:13:25;97764.84;;;5.41;100.00
60589;BME280;46421;48.610;9.334;2023-03-22T03:15:53;97759.66;;;5.31;100.00
60589;BME280;46421;48.610;9.334;2023-03-22T03:18:37;97762.06;;;5.24;100.00
60589;BME280;46421;48.610;9.334;2023-03-22T03:21:23;97753.38;;;5.86;98.84
60589;BME280;46421;48.610;9.334;2023-03-22T03:26:56;97750.63;;;6.14;96.20
60589;BME280;46421;48.610;9.334;2023-03-22T03:32:03;97759.00;;;6.36;94.35
60589;BME280;46421;48.610;9.334;2023-03-22T03:35:03;97764.47;;;6.42;93.45
60589;BME280;46421;48.610;9.334;2023-03-22T03:37:36;97767.22;;;6.59;92.47
60589;BME280;46421;48.610;9.334;2023-03-22T03:40:10;97767.16;;;5.98;96.19
60589;BME280;46421;48.610;9.334;2023-03-22T03:42:42;97776.44;;;5.30;98.55
60589;BME280;46421;48.610;9.334;2023-03-22T03:45:10;97778.47;;;5.72;97.76
60589;BME280;46421;48.610;9.334;2023-03-22T03:47:36;97774.38;;;6.14;95.06
60589;BME280;46421;48.610;9.334;2023-03-22T03:50:03;97777.56;;;5.45;98.73
60589;BME280;46421;48.610;9.334;2023-03-22T03:52:30;97786.31;;;5.82;97.85
60589;BME280;46421;48.610;9.334;2023-03-22T03:54:56;97785.38;;;6.09;95.48
60589;BME280;46421;48.610;9.334;2023-03-22T03:57:21;97782.00;;;5.99;94.47
60589;BME280;46421;48.610;9.334;2023-03-22T03:59:46;97783.09;;;6.14;94.33
60589;BME280;46421;48.610;9.334;2023-03-22T04:02:12;97784.19;;;6.30;94.39
60589;BME280;46421;48.610;9.334;2023-03-22T04:04:37;97784.69;;;6.52;90.82
60589;BME280;46421;48.610;9.334;2023-03-22T04:07:04;97782.50;;;6.21;94.07
60589;BME280;46421;48.610;9.334;2023-03-22T04:09:33;97783.69;;;5.46;95.71
60589;BME280;46421;48.610;9.334;2023-03-22T04:11:59;97792.56;;;5.27;99.21
60589;BME280;46421;48.610;9.334;2023-03-22T04:14:25;97783.13;;;4.78;100.00
60589;BME280;46421;48.610;9.334;2023-03-22T04:16:51;97781.88;;;4.72;100.00
60589;BME280;46421;48.610;9.334;2023-03-22T04:19:17;97788.56;;;5.41;99.24
60589;BME280;46421;48.610;9.334;2023-03-22T04:21:43;97787.13;;;5.64;94.85
60589;BME280;46421;48.610;9.334;2023-03-22T04:24:08;97779.97;;;5.93;94.07
60589;BME280;46421;48.610;9.334;2023-03-22T04:26:34;97773.81;;;5.84;93.39
60589;BME280;46421;48.610;9.334;2023-03-22T04:29:00;97782.69;;;6.01;93.03
60589;BME280;46421;48.610;9.334;2023-03-22T04:31:28;97782.91;;;6.08;91.69
60589;BME280;46421;48.610;9.334;2023-03-22T04:33:54;97784.91;;;5.69;92.43
60589;BME280;46421;48.610;9.334;2023-03-22T04:36:21;97776.91;;;5.43;98.64
60589;BME280;46421;48.610;9.334;2023-03-22T04:38:46;97791.66;;;5.72;95.09
60589;BME280;46421;48.610;9.334;2023-03-22T04:41:12;97776.81;;;5.17;96.31
60589;BME280;46421;48.610;9.334;2023-03-22T04:43:37;97782.03;;;4.99;98.82
60589;BME280;46421;48.610;9.334;2023-03-22T04:46:07;97776.44;;;4.84;100.00
60589;BME280;46421;48.610;9.334;2023-03-22T04:48:37;97780.66;;;5.22;99.92
60589;BME280;46421;48.610;9.334;2023-03-22T04:51:05;97780.44;;;5.70;96.01
60589;BME280;46421;48.610;9.334;2023-03-22T04:53:31;97769.59;;;5.73;94.24
60589;BME280;46421;48.610;9.334;2023-03-22T04:55:56;97769.16;;;5.60;95.28
60589;BME280;46421;48.610;9.334;2023-03-22T04:58:23;97776.91;;;5.61;94.88
60589;BME280;46421;48.610;9.334;2023-03-22T05:00:50;97780.66;;;5.22;95.83
60589;BME280;46421;48.610;9.334;2023-03-22T05:03:18;97782.94;;;4.89;97.24
60589;BME280;46421;48.610;9.334;2023-03-22T05:05:55;97775.66;;;4.46;100.00
60589;BME280;46421;48.610;9.334;2023-03-22T05:08:22;97773.13;;;4.54;99.85
60589;BME280;46421;48.610;9.334;2023-03-22T05:10:55;97774.56;;;4.38;100.00
60589;BME280;46421;48.610;9.334;2023-03-22T05:13:22;97768.66;;;4.26;100.00
60589;BME280;46421;48.610;9.334;2023-03-22T05:15:49;97770.06;;;4.86;100.00
60589;BME280;46421;48.610;9.334;2023-03-22T05:18:17;97759.38;;;4.13;100.00
60589;BME280;46421;48.610;9.334;2023-03-22T05:20:45;97754.25;;;4.21;100.00
60589;BME280;46421;48.610;9.334;2023-03-22T05:23:11;97758.00;;;4.18;100.00
60589;BME280;46421;48.610;9.334;2023-03-22T05:25:37;97751.66;;;4.49;100.00
60589;BME280;46421;48.610;9.334;2023-03-22T05:28:04;97746.13;;;4.98;99.38
60589;BME280;46421;48.610;9.334;2023-03-22T05:30:30;97749.59;;;4.42;99.41
60589;BME280;46421;48.610;9.334;2023-03-22T05:33:00;97746.09;;;4.52;100.00
60589;BME280;46421;48.610;9.334;2023-03-22T05:35:31;97751.88;;;4.27;100.00
60589;BME280;46421;48.610;9.334;2023-03-22T05:37:57;97746.63;;;4.18;100.00
60589;BME280;46421;48.610;9.334;2023-03-22T05:40:23;97748.47;;;4.07;100.00
60589;BME280;46421;48.610;9.334;2023-03-22T05:42:49;97750.13;;;3.99;100.00
60589;BME280;46421;48.610;9.334;2023-03-22T05:45:15;97743.09;;;3.99;100.00
60589;BME280;46421;48.610;9.334;2023-03-22T05:47:40;97741.78;;;4.13;100.00
60589;BME280;46421;48.610;9.334;2023-03-22T05:50:07;97745.88;;;4.35;100.00
60589;BME280;46421;48.610;9.334;2023-03-22T05:52:33;97749.34;;;4.36;100.00
60589;BME280;46421;48.610;9.334;2023-03-22T05:54:58;97741.06;;;4.31;100.00
60589;BME280;46421;48.610;9.334;2023-03-22T05:57:24;97733.41;;;4.37;100.00
60589;BME280;46421;48.610;9.334;2023-03-22T05:59:49;97735.41;;;5.27;100.00
60589;BME280;46421;48.610;9.334;2023-03-22T06:02:18;97729.50;;;5.15;99.89
60589;BME280;46421;48.610;9.334;2023-03-22T06:04:43;97730.34;;;5.52;95.10
60589;BME280;46421;48.610;9.334;2023-03-22T06:07:09;97732.78;;;5.90;95.27
60589;BME280;46421;48.610;9.334;2023-03-22T06:09:34;97734.91;;;5.86;95.57
60589;BME280;46421;48.610;9.334;2023-03-22T06:12:00;97730.88;;;6.18;92.02
60589;BME280;46421;48.610;9.334;2023-03-22T06:14:25;97727.47;;;6.34;92.52
60589;BME280;46421;48.610;9.334;2023-03-22T06:16:50;97730.63;;;7.56;87.02
60589;BME280;46421;48.610;9.334;2023-03-22T06:19:16;97734.38;;;8.03;81.11
60589;BME280;46421;48.610;9.334;2023-03-22T06:21:41;97735.97;;;8.46;78.14
60589;BME280;46421;48.610;9.334;2023-03-22T06:24:07;97740.22;;;8.63;78.23
60589;BME280;46421;48.610;9.334;2023-03-22T06:26:32;97746.03;;;8.98;76.60
60589;BME280;46421;48.610;9.334;2023-03-22T06:28:58;97737.06;;;9.31;73.75
60589;BME280;46421;48.610;9.334;2023-03-22T06:31:23;97741.25;;;9.48;77.09
60589;BME280;46421;48.610;9.334;2023-03-22T06:33:49;97739.31;;;10.04;71.96
60589;BME280;46421;48.610;9.334;2023-03-22T06:36:14;97743.28;;;10.98;67.96
60589;BME280;46421;48.610;9.334;2023-03-22T06:38:39;97739.81;;;11.77;65.68
60589;BME280;46421;48.610;9.334;2023-03-22T06:41:05;97748.38;;;12.51;62.42
60589;BME280;46421;48.610;9.334;2023-03-22T06:43:30;97752.19;;;12.70;63.25
60589;BME280;46421;48.610;9.334;2023-03-22T06:45:55;97760.69;;;12.94;60.01
60589;BME280;46421;48.610;9.334;2023-03-22T06:48:22;97767.69;;;12.95;57.46
60589;BME280;46421;48.610;9.334;2023-03-22T06:50:47;97764.25;;;12.31;60.43
60589;BME280;46421;48.610;9.334;2023-03-22T06:53:13;97772.63;;;12.98;59.87
60589;BME280;46421;48.610;9.334;2023-03-22T06:55:38;97758.25;;;13.48;57.28
60589;BME280;46421;48.610;9.334;2023-03-22T06:58:04;97773.91;;;13.84;58.23
60589;BME280;46421;48.610;9.334;2023-03-22T07:00:30;97765.28;;;14.22;56.45
60589;BME280;46421;48.610;9.334;2023-03-22T07:02:57;97767.94;;;14.36;56.25
60589;BME280;46421;48.610;9.334;2023-03-22T07:05:23;97770.41;;;14.44;56.35
60589;BME280;46421;48.610;9.334;2023-03-22T07:07:49;97765.69;;;13.86;57.56
60589;BME280;46421;48.610;9.334;2023-03-22T07:10:14;97774.72;;;13.85;59.59
60589;BME280;46421;48.610;9.334;2023-03-22T07:12:39;97765.91;;;14.45;56.48
60589;BME280;46421;48.610;9.334;2023-03-22T07:15:05;97770.00;;;14.47;58.75
60589;BME280;46421;48.610;9.334;2023-03-22T07:17:31;97758.66;;;15.24;54.48
60589;BME280;46421;48.610;9.334;2023-03-22T07:19:56;97756.16;;;16.00;52.34
60589;BME280;46421;48.610;9.334;2023-03-22T07:22:22;97761.63;;;15.80;52.31
60589;BME280;46421;48.610;9.334;2023-03-22T07:24:49;97761.88;;;16.54;50.59
60589;BME280;46421;48.610;9.334;2023-03-22T07:27:15;97761.78;;;16.42;50.71
60589;BME280;46421;48.610;9.334;2023-03-22T07:29:40;97764.56;;;15.72;52.04
60589;BME280;46421;48.610;9.334;2023-03-22T07:32:06;97757.19;;;16.50;50.96
60589;BME280;46421;48.610;9.334;2023-03-22T07:34:31;97760.41;;;17.14;49.68
60589;BME280;46421;48.610;9.334;2023-03-22T07:36:57;97771.44;;;17.55;51.79
60589;BME280;46421;48.610;9.334;2023-03-22T07:39:22;97767.78;;;17.80;54.21
60589;BME280;46421;48.610;9.334;2023-03-22T07:41:53;97770.97;;;19.48;45.29
60589;BME280;46421;48.610;9.334;2023-03-22T07:44:18;97774.97;;;19.17;46.24
60589;BME280;46421;48.610;9.334;2023-03-22T07:46:43;97765.06;;;20.26;43.68
60589;BME280;46421;48.610;9.334;2023-03-22T07:49:09;97773.47;;;21.75;39.75
60589;BME280;46421;48.610;9.334;2023-03-22T07:51:34;97763.69;;;21.69;38.95
60589;BME280;46421;48.610;9.334;2023-03-22T07:54:00;97764.56;;;22.07;39.72
60589;BME280;46421;48.610;9.334;2023-03-22T07:56:26;97769.72;;;21.31;39.51
60589;BME280;46421;48.610;9.334;2023-03-22T07:58:51;97772.06;;;20.78;37.93
60589;BME280;46421;48.610;9.334;2023-03-22T08:01:16;97764.44;;;22.29;36.43
60589;BME280;46421;48.610;9.334;2023-03-22T08:03:42;97772.69;;;22.82;35.65
60589;BME280;46421;48.610;9.334;2023-03-22T08:06:07;97769.91;;;23.20;33.64
60589;BME280;46421;48.610;9.334;2023-03-22T08:08:34;97769.09;;;19.78;38.68
60589;BME280;46421;48.610;9.334;2023-03-22T08:11:01;97768.19;;;20.91;37.08
60589;BME280;46421;48.610;9.334;2023-03-22T08:13:26;97771.56;;;22.03;37.56
60589;BME280;46421;48.610;9.334;2023-03-22T08:15:52;97767.97;;;23.15;33.86
60589;BME280;46421;48.610;9.334;2023-03-22T08:18:17;97773.47;;;22.02;36.14
60589;BME280;46421;48.610;9.334;2023-03-22T08:20:42;97774.56;;;23.35;32.98
60589;BME280;46421;48.610;9.334;2023-03-22T08:23:10;97774.72;;;24.02;32.93
60589;BME280;46421;48.610;9.334;2023-03-22T08:25:41;97776.06;;;22.24;37.20
60589;BME280;46421;48.610;9.334;2023-03-22T08:28:07;97764.09;;;24.31;31.17
60589;BME280;46421;48.610;9.334;2023-03-22T08:30:32;97769.00;;;24.04;29.77
60589;BME280;46421;48.610;9.334;2023-03-22T08:32:57;97774.19;;;23.95;32.13
60589;BME280;46421;48.610;9.334;2023-03-22T08:35:23;97768.56;;;25.14;29.06
60589;BME280;46421;48.610;9.334;2023-03-22T08:37:52;97770.88;;;24.44;32.04
60589;BME280;46421;48.610;9.334;2023-03-22T08:40:17;97777.34;;;24.90;29.99
60589;BME280;46421;48.610;9.334;2023-03-22T08:42:43;97781.38;;;26.43;28.58
60589;BME280;46421;48.610;9.334;2023-03-22T08:45:08;97776.34;;;24.13;31.58
60589;BME280;46421;48.610;9.334;2023-03-22T08:47:34;97776.28;;;24.86;32.25
60589;BME280;46421;48.610;9.334;2023-03-22T08:50:00;97781.72;;;26.36;29.14
60589;BME280;46421;48.610;9.334;2023-03-22T08:52:25;97771.81;;;26.16;29.33
60589;BME280;46421;48.610;9.334;2023-03-22T08:54:51;97768.25;;;26.50;29.05
60589;BME280;46421;48.610;9.334;2023-03-22T08:57:18;97766.00;;;24.36;31.47
60589;BME280;46421;48.610;9.334;2023-03-22T08:59:45;97763.47;;;27.14;27.79
60589;BME280;46421;48.610;9.334;2023-03-22T09:02:11;97762.25;;;25.79;27.29
60589;BME280;46421;48.610;9.334;2023-03-22T09:04:36;97758.91;;;26.27;30.18
60589;BME280;46421;48.610;9.334;2023-03-22T09:07:02;97756.75;;;25.84;27.80
60589;BME280;46421;48.610;9.334;2023-03-22T09:09:27;97755.63;;;25.90;29.61
60589;BME280;46421;48.610;9.334;2023-03-22T09:11:52;97743.22;;;28.77;25.00
60589;BME280;46421;48.610;9.334;2023-03-22T09:14:18;97745.34;;;29.73;25.54
60589;BME280;46421;48.610;9.334;2023-03-22T09:16:43;97737.72;;;29.33;26.20
60589;BME280;46421;48.610;9.334;2023-03-22T09:19:09;97747.78;;;30.20;23.94
60589;BME280;46421;48.610;9.334;2023-03-22T09:21:35;97742.78;;;28.56;24.83
60589;BME280;46421;48.610;9.334;2023-03-22T09:24:00;97738.25;;;28.79;26.17
60589;BME280;46421;48.610;9.334;2023-03-22T09:26:26;97737.31;;;27.33;26.72
60589;BME280;46421;48.610;9.334;2023-03-22T09:28:51;97728.81;;;27.34;25.72
60589;BME280;46421;48.610;9.334;2023-03-22T09:31:17;97742.47;;;25.68;28.00
60589;BME280;46421;48.610;9.334;2023-03-22T09:33:42;97745.38;;;27.19;26.67
60589;BME280;46421;48.610;9.334;2023-03-22T09:36:09;97731.31;;;27.30;26.36
60589;BME280;46421;48.610;9.334;2023-03-22T09:38:36;97737.44;;;28.18;25.74
60589;BME280;46421;48.610;9.334;2023-03-22T09:41:10;97728.28;;;28.42;25.91
60589;BME280;46421;48.610;9.334;2023-03-22T09:43:47;97720.75;;;27.48;25.76
60589;BME280;46421;48.610;9.334;2023-03-22T09:46:17;97721.19;;;28.40;25.73
60589;BME280;46421;48.610;9.334;2023-03-22T09:48:45;97720.00;;;27.42;26.22
60589;BME280;46421;48.610;9.334;2023-03-22T09:51:28;97704.66;;;28.18;26.20
60589;BME280;46421;48.610;9.334;2023-03-22T09:53:55;97715.41;;;28.42;26.73
60589;BME280;46421;48.610;9.334;2023-03-22T09:56:23;97699.38;;;29.47;24.22
60589;BME280;46421;48.610;9.334;2023-03-22T09:58:55;97701.88;;;28.93;25.52
60589;BME280;46421;48.610;9.334;2023-03-22T10:01:31;97697.50;;;29.33;26.29
60589;BME280;46421;48.610;9.334;2023-03-22T10:06:44;97687.69;;;28.02;25.07
60589;BME280;46421;48.610;9.334;2023-03-22T10:09:36;97683.81;;;29.33;27.11
60589;BME280;46421;48.610;9.334;2023-03-22T10:14:39;97691.09;;;30.29;22.63
60589;BME280;46421;48.610;9.334;2023-03-22T10:17:09;97688.75;;;30.85;22.25
60589;BME280;46421;48.610;9.334;2023-03-22T10:19:59;97668.03;;;29.02;24.15
60589;BME280;46421;48.610;9.334;2023-03-22T10:22:33;97669.00;;;28.09;25.91
60589;BME280;46421;48.610;9.334;2023-03-22T10:25:00;97670.78;;;27.09;25.79
60589;BME280;46421;48.610;9.334;2023-03-22T10:27:29;97662.19;;;26.78;26.20
60589;BME280;46421;48.610;9.334;2023-03-22T10:30:01;97649.41;;;28.21;25.92
60589;BME280;46421;48.610;9.334;2023-03-22T10:32:47;97646.22;;;27.67;27.73
60589;BME280;46421;48.610;9.334;2023-03-22T10:35:15;97641.69;;;26.08;27.72
60589;BME280;46421;48.610;9.334;2023-03-22T10:37:44;97630.69;;;27.29;27.07
60589;BME280;46421;48.610;9.334;2023-03-22T10:40:17;97643.16;;;28.76;24.46
60589;BME280;46421;48.610;9.334;2023-03-22T10:42:51;97640.19;;;28.86;24.08
60589;BME280;46421;48.610;9.334;2023-03-22T10:45:18;97636.16;;;26.66;26.10
60589;BME280;46421;48.610;9.334;2023-03-22T10:47:49;97633.34;;;25.64;27.87
60589;BME280;46421;48.610;9.334;2023-03-22T10:50:20;97637.72;;;26.24;28.17
60589;BME280;46421;48.610;9.334;2023-03-22T10:52:51;97629.22;;;25.32;28.92
60589;BME280;46421;48.610;9.334;2023-03-22T10:55:20;97636.03;;;26.52;25.48
60589;BME280;46421;48.610;9.334;2023-03-22T10:58:09;97624.25;;;27.39;25.61
60589;BME280;46421;48.610;9.334;2023-03-22T11:00:36;97622.41;;;27.86;25.54
60589;BME280;46421;48.610;9.334;2023-03-22T11:03:04;97622.44;;;30.03;22.98
60589;BME280;46421;48.610;9.334;2023-03-22T11:05:29;97611.84;;;28.82;22.92
60589;BME280;46421;48.610;9.334;2023-03-22T11:07:56;97619.28;;;29.41;23.22
60589;BME280;46421;48.610;9.334;2023-03-22T11:10:27;97611.81;;;29.56;21.30
60589;BME280;46421;48.610;9.334;2023-03-22T11:13:09;97610.59;;;27.39;23.99
60589;BME280;46421;48.610;9.334;2023-03-22T11:15:39;97613.13;;;30.04;21.23
60589;BME280;46421;48.610;9.334;2023-03-22T11:18:09;97614.28;;;28.14;23.38
60589;BME280;46421;48.610;9.334;2023-03-22T11:20:39;97609.13;;;28.82;24.98
60589;BME280;46421;48.610;9.334;2023-03-22T11:23:09;97614.09;;;29.31;22.70
60589;BME280;46421;48.610;9.334;2023-03-22T11:25:37;97620.28;;;29.68;22.64
60589;BME280;46421;48.610;9.334;2023-03-22T11:30:56;97614.97;;;28.90;21.00
60589;BME280;46421;48.610;9.334;2023-03-22T11:33:22;97599.97;;;27.56;23.04
60589;BME280;46421;48.610;9.334;2023-03-22T11:35:55;97598.72;;;27.82;22.87
60589;BME280;46421;48.610;9.334;2023-03-22T11:38:33;97590.25;;;26.74;24.17
60589;BME280;46421;48.610;9.334;2023-03-22T11:41:02;97590.09;;;26.65;25.21
60589;BME280;46421;48.610;9.334;2023-03-22T11:43:33;97605.72;;;25.47;26.32
60589;BME280;46421;48.610;9.334;2023-03-22T11:45:59;97585.25;;;23.27;26.24
60589;BME280;46421;48.610;9.334;2023-03-22T11:48:27;97587.34;;;24.23;26.93
60589;BME280;46421;48.610;9.334;2023-03-22T11:50:57;97576.00;;;25.85;26.58
60589;BME280;46421;48.610;9.334;2023-03-22T11:53:31;97573.88;;;26.30;25.42
60589;BME280;46421;48.610;9.334;2023-03-22T11:55:57;97571.47;;;26.29;24.02
60589;BME280;46421;48.610;9.334;2023-03-22T11:58:53;97560.75;;;27.52;23.14
60589;BME280;46421;48.610;9.334;2023-03-22T12:01:30;97570.84;;;29.73;22.11
60589;BME280;46421;48.610;9.334;2023-03-22T12:03:57;97561.81;;;29.95;21.46
60589;BME280;46421;48.610;9.334;2023-03-22T12:06:27;97559.38;;;31.10;21.49
60589;BME280;46421;48.610;9.334;2023-03-22T12:08:57;97549.91;;;32.50;19.11
60589;BME280;46421;48.610;9.334;2023-03-22T12:11:32;97551.75;;;30.71;20.36
60589;BME280;46421;48.610;9.334;2023-03-22T12:14:06;97549.13;;;30.66;20.97
60589;BME280;46421;48.610;9.334;2023-03-22T12:16:48;97540.19;;;29.62;19.88
60589;BME280;46421;48.610;9.334;2023-03-22T12:19:45;97540.97;;;28.58;20.76
60589;BME280;46421;48.610;9.334;2023-03-22T12:22:15;97533.19;;;29.47;21.77
60589;BME280;46421;48.610;9.334;2023-03-22T12:24:42;97535.91;;;30.10;21.12
60589;BME280;46421;48.610;9.334;2023-03-22T12:27:23;97524.34;;;28.82;21.10
60589;BME280;46421;48.610;9.334;2023-03-22T12:29:58;97525.25;;;30.58;20.90
60589;BME280;46421;48.610;9.334;2023-03-22T12:32:27;97533.78;;;30.48;19.56
60589;BME280;46421;48.610;9.334;2023-03-22T12:34:55;97528.31;;;29.67;20.72
60589;BME280;46421;48.610;9.334;2023-03-22T12:37:27;97524.69;;;28.39;21.75
60589;BME280;46421;48.610;9.334;2023-03-22T12:43:20;97519.81;;;27.52;25.31
60589;BME280;46421;48.610;9.334;2023-03-22T12:45:56;97516.22;;;25.99;24.95
60589;BME280;46421;48.610;9.334;2023-03-22T12:48:38;97522.06;;;26.16;25.11
60589;BME280;46421;48.610;9.334;2023-03-22T12:51:09;97520.00;;;27.42;21.64
60589;BME280;46421;48.610;9.334;2023-03-22T12:53:40;97517.88;;;29.78;21.50
60589;BME280;46421;48.610;9.334;2023-03-22T12:56:11;97513.91;;;30.42;20.67
60589;BME280;46421;48.610;9.334;2023-03-22T12:58:37;97527.13;;;29.14;21.05
60589;BME280;46421;48.610;9.334;2023-03-22T13:01:44;97511.28;;;28.29;20.81
60589;BME280;46421;48.610;9.334;2023-03-22T13:09:43;97509.13;;;25.15;23.52
60589;BME280;46421;48.610;9.334;2023-03-22T13:17:32;97484.41;;;22.94;28.13
60589;BME280;46421;48.610;9.334;2023-03-22T13:20:19;97496.91;;;24.22;26.62
60589;BME280;46421;48.610;9.334;2023-03-22T13:38:08;97468.09;;;25.94;23.79
60589;BME280;46421;48.610;9.334;2023-03-22T13:40:37;97456.63;;;26.60;23.91
60589;BME280;46421;48.610;9.334;2023-03-22T13:43:20;97451.66;;;27.47;23.00
60589;BME280;46421;48.610;9.334;2023-03-22T13:48:31;97450.78;;;22.95;27.99
60589;BME280;46421;48.610;9.334;2023-03-22T13:51:13;97453.56;;;21.47;27.80
60589;BME280;46421;48.610;9.334;2023-03-22T13:53:51;97449.25;;;21.46;26.93
60589;BME280;46421;48.610;9.334;2023-03-22T13:56:31;97445.19;;;23.93;26.29
60589;BME280;46421;48.610;9.334;2023-03-22T13:58:58;97447.34;;;23.96;24.50
60589;BME280;46421;48.610;9.334;2023-03-22T14:01:27;97441.84;;;23.04;26.11
60589;BME280;46421;48.610;9.334;2023-03-22T14:03:57;97442.66;;;22.95;27.58
60589;BME280;46421;48.610;9.334;2023-03-22T14:06:34;97428.56;;;24.55;25.36
60589;BME280;46421;48.610;9.334;2023-03-22T14:09:10;97438.16;;;24.82;23.91
60589;BME280;46421;48.610;9.334;2023-03-22T14:11:46;97431.28;;;26.78;23.39
60589;BME280;46421;48.610;9.334;2023-03-22T14:14:22;97436.78;;;26.16;23.14
60589;BME280;46421;48.610;9.334;2023-03-22T14:16:57;97423.16;;;26.73;22.48
60589;BME280;46421;48.610;9.334;2023-03-22T14:19:28;97415.72;;;25.78;23.51
60589;BME280;46421;48.610;9.334;2023-03-22T14:21:58;97424.44;;;25.56;24.26
60589;BME280;46421;48.610;9.334;2023-03-22T14:24:26;97423.66;;;24.97;24.33